Time,TemperatureF,DewpointF,PressureIn,WindDirection,WindDirectionDegrees,WindSpeedMPH,WindSpeedGustMPH,Humidity,HourlyPrecipIn,Conditions,Clouds,dailyrainin,SoftwareType,DateUTC
2015-08-27 00:03:00,64.6,61.6,29.88,South,180,0.0,-999.0,90,-99.99,,,0.00,Acu-Link.com,2015-08-27 04:03:00,
2015-08-27 00:19:00,64.2,61.5,29.88,South,180,0.0,-999.0,91,-99.99,,,0.00,Acu-Link.com,2015-08-27 04:19:00,
2015-08-27 00:34:00,63.9,61.2,29.88,South,180,0.0,-999.0,91,-99.99,,,0.00,Acu-Link.com,2015-08-27 04:34:00,
2015-08-27 00:49:00,64.2,61.5,29.87,South,180,0.0,-999.0,91,-99.99,,,0.00,Acu-Link.com,2015-08-27 04:49:00,
2015-08-27 01:04:00,64.2,61.5,29.87,South,180,0.0,-999.0,91,-99.99,,,0.00,Acu-Link.com,2015-08-27 05:04:00,
2015-08-27 01:20:00,64.4,61.7,29.87,South,180,0.0,-999.0,91,-99.99,,,0.00,Acu-Link.com,2015-08-27 05:20:00,
2015-08-27 01:35:00,64.4,61.7,29.87,South,180,0.0,-999.0,91,-99.99,,,0.00,Acu-Link.com,2015-08-27 05:35:00,
2015-08-27 01:50:00,63.9,61.2,29.87,South,180,0.0,-999.0,91,-99.99,,,0.00,Acu-Link.com,2015-08-27 05:50:00,
2015-08-27 02:05:00,63.5,60.8,29.88,South,180,0.0,-999.0,91,-99.99,,,0.00,Acu-Link.com,2015-08-27 06:05:00,
2015-08-27 02:20:00,63.5,60.8,29.88,South,180,0.0,-999.0,91,-99.99,,,0.00,Acu-Link.com,2015-08-27 06:20:00,
2015-08-27 02:35:00,63.5,60.5,29.88,NW,315,0.0,-999.0,90,-99.99,,,0.00,Acu-Link.com,2015-08-27 06:35:00,
2015-08-27 02:51:00,63.9,59.6,29.88,NNW,337,1.7,-999.0,86,-99.99,,,0.00,Acu-Link.com,2015-08-27 06:51:00,
2015-08-27 03:06:00,64.2,59.3,29.88,NW,315,0.0,-999.0,84,-99.99,,,0.00,Acu-Link.com,2015-08-27 07:06:00,
2015-08-27 03:21:00,64.0,59.1,29.88,NW,315,0.0,-999.0,84,-99.99,,,0.00,Acu-Link.com,2015-08-27 07:21:00,
2015-08-27 03:36:00,63.5,58.6,29.88,NNW,337,0.0,-999.0,84,-99.99,,,0.00,Acu-Link.com,2015-08-27 07:36:00,
2015-08-27 03:51:00,63.1,58.5,29.88,NNW,337,0.0,-999.0,85,-99.99,,,0.00,Acu-Link.com,2015-08-27 07:51:00,
2015-08-27 04:07:00,62.4,58.5,29.87,NNW,337,0.0,-999.0,87,-99.99,,,0.00,Acu-Link.com,2015-08-27 08:07:00,
2015-08-27 04:22:00,62.1,58.2,29.88,NNW,337,0.0,-999.0,87,-99.99,,,0.00,Acu-Link.com,2015-08-27 08:22:00,
2015-08-27 04:37:00,61.9,58.3,29.88,NNW,337,0.0,-999.0,88,-99.99,,,0.00,Acu-Link.com,2015-08-27 08:37:00,
2015-08-27 04:52:00,61.7,58.4,29.88,NNW,337,0.0,-999.0,89,-99.99,,,0.00,Acu-Link.com,2015-08-27 08:52:00,
2015-08-27 05:08:00,61.0,58.0,29.88,NNW,337,0.0,-999.0,90,-99.99,,,0.00,Acu-Link.com,2015-08-27 09:08:00,
2015-08-27 05:23:00,60.6,58.0,29.88,NNW,337,0.0,-999.0,91,-99.99,,,0.00,Acu-Link.com,2015-08-27 09:23:00,
2015-08-27 05:38:00,60.3,57.7,29.89,NNW,337,0.0,-999.0,91,-99.99,,,0.00,Acu-Link.com,2015-08-27 09:38:00,
2015-08-27 05:54:00,60.1,57.5,29.90,NNW,337,0.0,-999.0,91,-99.99,,,0.00,Acu-Link.com,2015-08-27 09:54:00,
2015-08-27 06:09:00,60.1,57.5,29.90,NNW,337,0.0,-999.0,91,-99.99,,,0.00,Acu-Link.com,2015-08-27 10:09:00,
2015-08-27 06:24:00,60.1,57.5,29.90,NNW,337,0.0,-999.0,91,-99.99,,,0.00,Acu-Link.com,2015-08-27 10:24:00,
2015-08-27 06:39:00,60.3,57.7,29.90,NNW,337,0.0,-999.0,91,-99.99,,,0.00,Acu-Link.com,2015-08-27 10:39:00,
2015-08-27 06:55:00,60.3,57.7,29.91,NNW,337,0.0,-999.0,91,-99.99,,,0.00,Acu-Link.com,2015-08-27 10:55:00,
2015-08-27 07:10:00,59.9,57.6,29.91,NNW,337,0.0,-999.0,92,-99.99,,,0.00,Acu-Link.com,2015-08-27 11:10:00,
2015-08-27 07:25:00,60.4,58.1,29.91,NNW,337,0.0,-999.0,92,-99.99,,,0.00,Acu-Link.com,2015-08-27 11:25:00,
2015-08-27 07:41:00,62.1,59.7,29.92,NNW,337,0.0,-999.0,92,-99.99,,,0.00,Acu-Link.com,2015-08-27 11:41:00,
2015-08-27 07:56:00,63.1,59.8,29.92,NW,315,2.2,-999.0,89,-99.99,,,0.00,Acu-Link.com,2015-08-27 11:56:00,
2015-08-27 08:11:00,65.1,59.5,29.93,North,0,2.7,-999.0,82,-99.99,,,0.00,Acu-Link.com,2015-08-27 12:11:00,
2015-08-27 08:26:00,66.0,58.9,29.94,NNW,337,4.7,-999.0,78,-99.99,,,0.00,Acu-Link.com,2015-08-27 12:26:00,
2015-08-27 08:42:00,68.5,58.7,29.94,NNW,337,1.7,-999.0,71,-99.99,,,0.00,Acu-Link.com,2015-08-27 12:42:00,
2015-08-27 08:57:00,68.9,57.9,29.94,NNE,22,2.7,-999.0,68,-99.99,,,0.00,Acu-Link.com,2015-08-27 12:57:00,
2015-08-27 09:12:00,71.6,59.2,29.94,NNW,337,5.8,-999.0,65,-99.99,,,0.00,Acu-Link.com,2015-08-27 13:12:00,
2015-08-27 09:27:00,75.4,59.6,29.94,ESE,112,4.7,-999.0,58,-99.99,,,0.00,Acu-Link.com,2015-08-27 13:27:00,
2015-08-27 09:42:00,75.2,58.4,29.95,ENE,67,6.8,-999.0,56,-99.99,,,0.00,Acu-Link.com,2015-08-27 13:42:00,
2015-08-27 09:58:00,75.7,58.9,29.96,SSE,157,2.2,-999.0,56,-99.99,,,0.00,Acu-Link.com,2015-08-27 13:58:00,
2015-08-27 10:13:00,76.5,59.6,29.96,NE,45,2.7,-999.0,56,-99.99,,,0.00,Acu-Link.com,2015-08-27 14:13:00,
2015-08-27 10:28:00,73.0,58.3,29.96,ESE,112,2.2,-999.0,60,-99.99,,,0.00,Acu-Link.com,2015-08-27 14:28:00,
2015-08-27 10:44:00,74.1,58.8,29.96,NW,315,6.8,-999.0,59,-99.99,,,0.00,Acu-Link.com,2015-08-27 14:44:00,
2015-08-27 10:59:00,75.7,59.4,29.97,NNE,22,2.7,-999.0,57,-99.99,,,0.00,Acu-Link.com,2015-08-27 14:59:00,
2015-08-27 11:14:00,77.0,59.6,29.97,East,90,2.2,-999.0,55,-99.99,,,0.00,Acu-Link.com,2015-08-27 15:14:00,
2015-08-27 11:30:00,76.8,58.9,29.96,NNE,22,4.7,-999.0,54,-99.99,,,0.00,Acu-Link.com,2015-08-27 15:30:00,
2015-08-27 11:45:00,77.9,59.4,29.96,North,0,5.3,-999.0,53,-99.99,,,0.00,Acu-Link.com,2015-08-27 15:45:00,
2015-08-27 12:00:00,79.0,59.3,29.95,NNW,337,3.7,-999.0,51,-99.99,,,0.00,Acu-Link.com,2015-08-27 16:00:00,
2015-08-27 12:15:00,79.7,59.4,29.95,NNE,22,2.7,-999.0,50,-99.99,,,0.00,Acu-Link.com,2015-08-27 16:15:00,
2015-08-27 12:30:00,79.5,59.2,29.94,SE,135,3.2,-999.0,50,-99.99,,,0.00,Acu-Link.com,2015-08-27 16:30:00,
2015-08-27 12:46:00,79.7,59.4,29.93,NNW,337,4.7,-999.0,50,-99.99,,,0.00,Acu-Link.com,2015-08-27 16:46:00,
2015-08-27 13:01:00,81.0,60.0,29.93,North,0,5.3,-999.0,49,-99.99,,,0.00,Acu-Link.com,2015-08-27 17:01:00,
2015-08-27 13:16:00,81.5,60.5,29.92,NNE,22,5.8,-999.0,49,-99.99,,,0.00,Acu-Link.com,2015-08-27 17:16:00,
2015-08-27 13:31:00,81.9,60.8,29.92,NE,45,1.1,-999.0,49,-99.99,,,0.00,Acu-Link.com,2015-08-27 17:31:00,
2015-08-27 13:46:00,81.7,60.7,29.92,North,0,2.7,-999.0,49,-99.99,,,0.00,Acu-Link.com,2015-08-27 17:46:00,
2015-08-27 14:01:00,82.6,60.9,29.91,SSE,157,5.3,-999.0,48,-99.99,,,0.00,Acu-Link.com,2015-08-27 18:01:00,
2015-08-27 14:17:00,83.1,60.8,29.91,NE,45,7.8,-999.0,47,-99.99,,,0.00,Acu-Link.com,2015-08-27 18:17:00,
2015-08-27 14:32:00,84.9,61.8,29.90,SSE,157,4.7,-999.0,46,-99.99,,,0.00,Acu-Link.com,2015-08-27 18:32:00,
2015-08-27 14:47:00,84.0,59.7,29.90,North,0,1.7,-999.0,44,-99.99,,,0.00,Acu-Link.com,2015-08-27 18:47:00,
2015-08-27 15:02:00,84.9,61.2,29.89,South,180,2.7,-999.0,45,-99.99,,,0.00,Acu-Link.com,2015-08-27 19:02:00,
2015-08-27 15:17:00,83.7,60.1,29.90,SE,135,2.2,-999.0,45,-99.99,,,0.00,Acu-Link.com,2015-08-27 19:17:00,
2015-08-27 15:32:00,85.8,62.0,29.89,ESE,112,2.2,-999.0,45,-99.99,,,0.00,Acu-Link.com,2015-08-27 19:32:00,
2015-08-27 15:47:00,83.7,60.7,29.89,NNE,22,2.7,-999.0,46,-99.99,,,0.00,Acu-Link.com,2015-08-27 19:47:00,
2015-08-27 16:03:00,81.9,59.7,29.89,East,90,2.2,-999.0,47,-99.99,,,0.00,Acu-Link.com,2015-08-27 20:03:00,
2015-08-27 16:18:00,81.3,59.7,29.88,South,180,0.0,-999.0,48,-99.99,,,0.00,Acu-Link.com,2015-08-27 20:18:00,
2015-08-27 16:33:00,81.7,59.5,29.89,NW,315,6.3,-999.0,47,-99.99,,,0.00,Acu-Link.com,2015-08-27 20:33:00,
2015-08-27 16:48:00,81.7,59.5,29.89,NNE,22,1.7,-999.0,47,-99.99,,,0.00,Acu-Link.com,2015-08-27 20:48:00,
2015-08-27 17:03:00,81.9,59.7,29.88,East,90,2.2,-999.0,47,-99.99,,,0.00,Acu-Link.com,2015-08-27 21:03:00,
2015-08-27 17:18:00,82.0,60.3,29.88,NNE,22,0.0,-999.0,48,-99.99,,,0.00,Acu-Link.com,2015-08-27 21:18:00,
2015-08-27 17:33:00,82.0,59.8,29.89,NE,45,2.7,-999.0,47,-99.99,,,0.00,Acu-Link.com,2015-08-27 21:33:00,
2015-08-27 17:49:00,82.9,59.4,29.89,ESE,112,4.7,-999.0,45,-99.99,,,0.00,Acu-Link.com,2015-08-27 21:49:00,
2015-08-27 18:04:00,82.0,60.3,29.89,SW,225,1.1,-999.0,48,-99.99,,,0.00,Acu-Link.com,2015-08-27 22:04:00,